.
WxDataArchive / Data Records for 2011-12-09
2011-12-08 December 2011 2011-12-10

Data Records for Friday, 09 December 2011

Time	Temp	Chill	HIndex	Humid	Dewpt	 Wind 	HiWind	WindDir	Rain 	Barom 
-----	----	-----	------	-----	-----	------	------	-------	-----	----- 
00:00	32.4	32.4	32.4	81	27.2	0	0	---	0.00	30.217 
00:05	32.4	32.4	32.4	81	27.2	0	0	---	0.00	30.217 
00:10	32.4	32.4	32.4	81	27.2	0	0	---	0.00	30.217 
00:15	32.4	32.4	32.4	81	27.2	0	0	---	0.00	30.214 
00:20	32.4	32.4	32.4	81	27.2	0	1	248	0.00	30.214 
00:25	32.4	32.4	32.4	81	27.2	0	0	---	0.00	30.214 
00:30	32.5	32.5	32.5	81	27.3	0	0	---	0.00	30.211 
00:35	32.5	32.5	32.5	81	27.3	0	0	---	0.00	30.211 
00:40	32.5	32.5	32.5	81	27.3	0	0	---	0.00	30.211 
00:45	32.5	32.5	32.5	81	27.3	0	0	---	0.00	30.206 
00:50	32.5	32.5	32.5	81	27.3	0	1	248	0.00	30.206 
00:55	32.5	32.5	32.5	81	27.3	0	0	---	0.00	30.206 
01:00	32.5	32.5	32.5	81	27.3	0	0	---	0.00	30.204 
01:05	32.5	32.5	32.5	82	27.6	0	0	---	0.00	30.204 
01:10	32.5	32.5	32.5	82	27.6	0	1	248	0.00	30.204 
01:15	32.5	32.5	32.5	82	27.6	0	0	---	0.00	30.202 
01:20	32.5	32.5	32.5	83	27.9	0	1	248	0.00	30.202 
01:25	32.4	32.4	32.4	84	28.1	0	0	---	0.00	30.202 
01:30	32.4	32.4	32.4	84	28.1	0	0	---	0.00	30.194 
01:35	32.4	32.4	32.4	84	28.1	0	0	---	0.00	30.194 
01:40	32.2	32.2	32.2	85	28.2	0	0	---	0.00	30.194 
01:45	32.2	32.2	32.2	85	28.2	0	0	---	0.00	30.189 
01:50	32.2	32.2	32.2	86	28.5	0	0	---	0.00	30.189 
01:55	32.2	32.2	32.2	86	28.5	0	0	---	0.00	30.189 
02:00	32.1	32.1	32.1	87	28.7	0	0	---	0.00	30.187 
02:05	32.1	32.1	32.1	87	28.7	0	0	---	0.00	30.187 
02:10	32.1	32.1	32.1	87	28.7	0	0	---	0.00	30.187 
02:15	32.1	32.1	32.1	87	28.7	0	0	---	0.00	30.189 
02:20	32.1	32.1	32.1	88	29.0	0	1	248	0.00	30.189 
02:25	32.1	32.1	32.1	88	29.0	0	2	248	0.00	30.189 
02:30	32.1	32.1	32.1	88	29.0	0	1	248	0.00	30.193 
02:35	32.1	32.1	32.1	89	29.2	0	1	248	0.00	30.193 
02:40	32.1	32.1	32.1	89	29.2	0	1	248	0.00	30.193 
02:45	31.9	31.9	31.9	89	29.0	0	0	---	0.00	30.196 
02:50	31.9	31.9	31.9	89	29.0	0	0	---	0.00	30.196 
02:55	31.9	31.9	31.9	90	29.3	0	2	248	0.00	30.196 
03:00	31.9	31.9	31.9	90	29.3	0	1	248	0.00	30.202 
03:05	31.9	31.9	31.9	90	29.3	0	1	248	0.00	30.202 
03:10	31.8	31.8	31.8	90	29.2	0	1	248	0.00	30.202 
03:15	31.8	31.8	31.8	90	29.2	0	0	---	0.00	30.198 
03:20	31.8	31.8	31.8	91	29.5	0	1	248	0.00	30.198 
03:25	31.6	31.6	31.6	91	29.3	0	0	---	0.00	30.198 
03:30	31.6	31.6	31.6	91	29.3	0	0	---	0.00	30.197 
03:35	31.6	31.6	31.6	91	29.3	0	0	---	0.00	30.197 
03:40	31.6	31.6	31.6	91	29.3	0	0	---	0.00	30.197 
03:45	31.5	31.5	31.5	91	29.2	0	1	248	0.00	30.195 
03:50	31.3	31.3	31.3	91	29.0	0	1	248	0.00	30.195 
03:55	31.3	31.3	31.3	91	29.0	0	0	---	0.00	30.195 
04:00	31.2	31.2	31.2	91	28.9	0	0	---	0.00	30.197 
04:05	31.2	31.2	31.2	91	28.9	0	0	---	0.00	30.197 
04:10	31.0	31.0	31.0	91	28.7	0	0	---	0.00	30.197 
04:15	30.9	30.9	30.9	92	28.9	0	0	---	0.00	30.197 
04:20	30.7	30.7	30.7	92	28.7	0	0	---	0.00	30.197 
04:25	30.7	30.7	30.7	92	28.7	0	0	---	0.00	30.197 
04:30	30.7	30.7	30.7	92	28.7	0	0	---	0.00	30.196 
04:35	30.7	30.7	30.7	92	28.7	0	0	---	0.00	30.196 
04:40	30.6	30.6	30.6	92	28.6	0	0	---	0.00	30.196 
04:45	30.6	30.6	30.6	92	28.6	0	0	---	0.00	30.194 
04:50	30.4	30.4	30.4	92	28.4	0	0	---	0.00	30.194 
04:55	30.3	30.3	30.3	92	28.3	0	0	---	0.00	30.194 
05:00	30.3	30.3	30.3	92	28.3	0	0	---	0.00	30.198 
05:05	30.3	30.3	30.3	92	28.3	0	0	---	0.00	30.198 
05:10	30.3	30.3	30.3	92	28.3	0	0	---	0.00	30.198 
05:15	30.3	30.3	30.3	92	28.3	0	0	---	0.00	30.196 
05:20	30.3	30.3	30.3	92	28.3	0	0	---	0.00	30.196 
05:25	30.3	30.3	30.3	92	28.3	0	0	---	0.00	30.196 
05:30	30.3	30.3	30.3	92	28.3	0	0	---	0.00	30.195 
05:35	30.3	30.3	30.3	92	28.3	0	0	---	0.00	30.195 
05:40	30.1	30.1	30.1	92	28.1	0	0	---	0.00	30.195 
05:45	30.1	30.1	30.1	92	28.1	0	0	---	0.00	30.194 
05:50	30.1	30.1	30.1	92	28.1	0	0	---	0.00	30.194 
05:55	30.1	30.1	30.1	92	28.1	0	0	---	0.00	30.194 
06:00	30.1	30.1	30.1	92	28.1	0	0	---	0.00	30.196 
06:05	30.1	30.1	30.1	92	28.1	0	0	---	0.00	30.196 
06:10	30.1	30.1	30.1	92	28.1	0	0	---	0.00	30.196 
06:15	30.1	30.1	30.1	92	28.1	0	0	---	0.00	30.198 
06:20	30.1	30.1	30.1	92	28.1	0	0	---	0.00	30.198 
06:25	30.1	30.1	30.1	92	28.1	0	0	---	0.00	30.198 
06:30	30.1	30.1	30.1	92	28.1	0	0	---	0.00	30.199 
06:35	30.1	30.1	30.1	92	28.1	0	0	---	0.00	30.199 
06:40	30.1	30.1	30.1	92	28.1	0	0	---	0.00	30.199 
06:45	30.1	30.1	30.1	92	28.1	0	0	---	0.00	30.203 
06:50	30.1	30.1	30.1	92	28.1	0	0	---	0.00	30.203 
06:55	30.1	30.1	30.1	92	28.1	0	0	---	0.00	30.203 
07:00	30.1	30.1	30.1	92	28.1	0	0	---	0.00	30.205 
07:05	30.1	30.1	30.1	92	28.1	0	0	---	0.00	30.205 
07:10	30.0	30.0	30.0	92	28.0	0	0	---	0.00	30.205 
07:15	30.0	30.0	30.0	93	28.2	0	0	---	0.00	30.206 
07:20	30.0	30.0	30.0	93	28.2	0	0	---	0.00	30.206 
07:25	30.0	30.0	30.0	93	28.2	0	0	---	0.00	30.206 
07:30	30.0	30.0	30.0	93	28.2	0	0	---	0.00	30.209 
07:35	30.0	30.0	30.0	93	28.2	0	0	---	0.00	30.209 
07:40	30.0	30.0	30.0	93	28.2	0	0	---	0.00	30.209 
07:45	30.0	30.0	30.0	93	28.2	0	0	---	0.00	30.208 
07:50	29.8	29.8	29.8	93	28.0	0	0	---	0.00	30.208 
07:55	29.8	29.8	29.8	93	28.0	0	0	---	0.00	30.208 
08:00	29.8	29.8	29.8	93	28.0	0	0	---	0.00	30.213 
08:05	29.8	29.8	29.8	93	28.0	0	0	---	0.00	30.213 
08:10	29.8	29.8	29.8	93	28.0	0	0	---	0.00	30.213 
08:15	29.8	29.8	29.8	93	28.0	0	0	---	0.00	30.215 
08:20	30.0	30.0	30.0	93	28.2	0	0	---	0.00	30.215 
08:25	30.0	30.0	30.0	93	28.2	0	0	---	0.00	30.215 
08:30	30.0	30.0	30.0	93	28.2	0	0	---	0.00	30.216 
08:35	30.0	30.0	30.0	93	28.2	0	0	---	0.00	30.216 
08:40	30.0	30.0	30.0	93	28.2	0	0	---	0.00	30.216 
08:45	30.0	30.0	30.0	93	28.2	0	0	---	0.00	30.217 
08:50	30.0	30.0	30.0	93	28.2	0	0	---	0.00	30.217 
08:55	30.1	30.1	30.1	93	28.3	0	1	248	0.00	30.217 
09:00	30.1	30.1	30.1	93	28.3	0	0	---	0.00	30.222 
09:05	30.1	30.1	30.1	93	28.3	0	1	248	0.00	30.222 
09:10	30.1	30.1	30.1	93	28.3	0	0	---	0.00	30.222 
09:15	30.1	30.1	30.1	93	28.3	0	1	248	0.00	30.229 
09:20	30.3	30.3	30.3	92	28.3	0	1	248	0.00	30.229 
09:25	30.3	30.3	30.3	92	28.3	0	0	---	0.00	30.229 
09:30	30.3	30.3	30.3	92	28.3	0	1	248	0.00	30.233 
09:35	30.3	30.3	30.3	92	28.3	0	1	248	0.00	30.233 
09:40	30.3	30.3	30.3	92	28.3	0	1	248	0.00	30.233 
09:45	30.4	30.4	30.4	92	28.4	0	1	248	0.00	30.240 
09:50	30.6	30.6	30.6	92	28.6	0	1	248	0.00	30.240 
09:55	30.6	30.6	30.6	92	28.6	0	2	248	0.00	30.240 
10:00	30.7	30.7	30.7	92	28.7	0	1	248	0.00	30.242 
10:05	30.7	30.7	30.7	92	28.7	0	1	248	0.00	30.242 
10:10	30.7	30.7	30.7	92	28.7	0	1	248	0.00	30.242 
10:15	30.9	30.9	30.9	91	28.6	0	1	248	0.00	30.245 
10:20	30.9	30.9	30.9	91	28.6	0	1	248	0.00	30.245 
10:25	30.9	30.9	30.9	91	28.6	0	1	248	0.00	30.245 
10:30	31.0	31.0	31.0	91	28.7	0	1	248	0.00	30.246 
10:35	31.0	31.0	31.0	90	28.4	0	1	248	0.00	30.246 
10:40	31.0	31.0	31.0	90	28.4	0	2	248	0.00	30.246 
10:45	31.0	31.0	31.0	90	28.4	0	3	248	0.00	30.249 
10:50	31.0	31.0	31.0	90	28.4	0	2	248	0.00	30.249 
10:55	31.2	31.2	31.2	90	28.6	0	1	248	0.00	30.249 
11:00	31.2	31.2	31.2	89	28.3	0	1	248	0.00	30.250 
11:05	31.3	31.3	31.3	89	28.4	0	2	248	0.00	30.250 
11:10	31.3	31.3	31.3	89	28.4	0	1	248	0.00	30.250 
11:15	31.3	31.3	31.3	88	28.2	0	2	248	0.00	30.248 
11:20	31.5	31.5	31.5	88	28.4	0	1	248	0.00	30.248 
11:25	31.5	31.5	31.5	88	28.4	0	2	248	0.00	30.248 
11:30	31.5	31.5	31.5	88	28.4	0	2	248	0.00	30.246 
11:35	31.6	31.6	31.6	88	28.5	1	3	292	0.00	30.246 
11:40	31.6	31.6	31.6	87	28.2	1	2	292	0.00	30.246 
11:45	31.8	31.8	31.8	87	28.4	0	2	292	0.00	30.245 
11:50	31.8	31.8	31.8	87	28.4	1	2	292	0.00	30.245 
11:55	31.9	31.9	31.9	86	28.2	1	3	315	0.00	30.245 
12:00	32.1	32.1	32.1	86	28.4	0	2	315	0.00	30.245 
12:05	31.9	31.9	31.9	85	27.9	1	4	270	0.00	30.245 
12:10	31.8	31.8	31.8	85	27.8	1	4	248	0.00	30.245 
12:15	31.5	31.5	31.5	85	27.5	1	3	315	0.00	30.244 
12:20	31.5	31.5	31.5	84	27.2	1	3	292	0.00	30.244 
12:25	31.3	31.3	31.3	84	27.0	1	3	338	0.00	30.244 
12:30	31.5	31.5	31.5	84	27.2	1	4	0	0.00	30.244 
12:35	31.3	31.3	31.3	84	27.0	1	3	338	0.00	30.244 
12:40	31.0	31.0	31.0	84	26.7	1	4	338	0.00	30.244 
12:45	30.9	30.9	30.9	83	26.4	2	3	270	0.00	30.244 
12:50	30.7	30.7	30.7	83	26.2	1	4	270	0.00	30.244 
12:55	30.7	30.7	30.7	82	25.9	2	5	270	0.00	30.244 
13:00	30.7	30.7	30.7	81	25.6	1	4	0	0.00	30.242 
13:05	30.9	30.9	30.9	81	25.8	1	4	270	0.00	30.242 
13:10	31.3	31.3	31.3	81	26.2	0	1	270	0.00	30.242 
13:15	31.3	31.3	31.3	81	26.2	1	4	270	0.00	30.241 
13:20	31.2	31.2	31.2	79	25.5	3	4	270	0.00	30.241 
13:25	31.2	31.2	31.2	79	25.5	1	2	338	0.00	30.241 
13:30	31.2	31.2	31.2	78	25.2	2	6	248	0.00	30.246 
13:35	31.2	31.2	31.2	78	25.2	1	6	248	0.00	30.246 
13:40	31.2	31.2	31.2	78	25.2	1	3	315	0.00	30.246 
13:45	31.2	31.2	31.2	78	25.2	1	4	315	0.00	30.245 
13:50	31.2	31.2	31.2	78	25.2	1	3	248	0.00	30.245 
13:55	31.2	31.2	31.2	78	25.2	2	5	0	0.00	30.245 
14:00	31.0	31.0	31.0	77	24.7	2	5	270	0.00	30.246 
14:05	31.0	31.0	31.0	78	25.0	1	4	315	0.00	30.246 
14:10	31.0	31.0	31.0	78	25.0	1	4	270	0.00	30.246 
14:15	31.2	31.2	31.2	78	25.2	1	5	338	0.00	30.246 
14:20	31.3	31.3	31.3	77	24.9	1	3	338	0.00	30.246 
14:25	31.3	31.3	31.3	77	24.9	2	3	270	0.00	30.246 
14:30	31.2	31.2	31.2	77	24.8	2	4	338	0.00	30.249 
14:35	31.0	31.0	31.0	77	24.7	2	3	270	0.00	30.249 
14:40	31.0	31.0	31.0	77	24.7	1	3	270	0.00	30.249 
14:45	30.9	30.9	30.9	77	24.6	2	3	315	0.00	30.252 
14:50	30.9	30.9	30.9	77	24.6	2	3	338	0.00	30.252 
14:55	30.9	30.9	30.9	77	24.6	1	3	315	0.00	30.252 
15:00	30.9	30.9	30.9	77	24.6	1	4	0	0.00	30.255 
15:05	30.9	30.9	30.9	77	24.6	1	3	270	0.00	30.255 
15:10	30.9	30.9	30.9	77	24.6	1	3	315	0.00	30.255 
15:15	30.7	30.7	30.7	77	24.4	2	3	315	0.00	30.261 
15:20	30.7	30.7	30.7	77	24.4	2	4	270	0.00	30.261 
15:25	30.6	30.6	30.6	77	24.3	1	4	270	0.00	30.261 
15:30	30.6	30.6	30.6	77	24.3	1	2	248	0.00	30.261 
15:35	30.7	30.7	30.7	78	24.7	1	2	248	0.00	30.261 
15:40	30.6	30.6	30.6	77	24.3	1	3	248	0.00	30.261 
15:45	30.6	30.6	30.6	76	24.0	1	3	248	0.00	30.269 
15:50	30.4	30.4	30.4	76	23.8	1	3	292	0.00	30.269 
15:55	30.4	30.4	30.4	76	23.8	1	2	315	0.00	30.269 
16:00	30.4	30.4	30.4	76	23.8	1	3	315	0.00	30.276 
16:05	30.3	30.3	30.3	76	23.7	1	3	315	0.00	30.276 
16:10	30.4	30.4	30.4	76	23.8	0	2	315	0.00	30.276 
16:15	30.4	30.4	30.4	76	23.8	1	2	315	0.00	30.279 
16:20	30.3	30.3	30.3	76	23.7	1	3	315	0.00	30.279 
16:25	30.3	30.3	30.3	76	23.7	2	3	248	0.00	30.279 
16:30	30.1	30.1	30.1	76	23.5	1	3	270	0.00	30.283 
16:35	30.1	30.1	30.1	76	23.5	2	3	270	0.00	30.283 
16:40	30.0	30.0	30.0	76	23.4	1	4	270	0.00	30.283 
16:45	29.8	29.8	29.8	77	23.5	1	3	248	0.00	30.292 
16:50	29.8	29.8	29.8	77	23.5	2	3	248	0.00	30.292 
16:55	29.7	29.7	29.7	77	23.4	1	3	292	0.00	30.292 
17:00	29.7	29.7	29.7	77	23.4	1	3	292	0.00	30.298 
17:05	29.5	29.5	29.5	78	23.5	1	3	315	0.00	30.298 
17:10	29.4	29.4	29.4	77	23.1	1	4	292	0.00	30.298 
17:15	29.3	29.3	29.3	77	23.0	1	2	292	0.00	30.311 
17:20	29.1	29.1	29.1	77	22.8	1	2	292	0.00	30.311 
17:25	29.0	29.0	29.0	77	22.7	1	4	292	0.00	30.311 
17:30	29.1	29.1	29.1	78	23.1	0	2	292	0.00	30.316 
17:35	29.0	29.0	29.0	78	23.0	1	2	315	0.00	30.316 
17:40	28.7	28.7	28.7	78	22.7	0	3	0	0.00	30.316 
17:45	28.5	28.5	28.5	78	22.5	1	4	270	0.00	30.326 
17:50	28.4	28.4	28.4	77	22.1	1	6	248	0.00	30.326 
17:55	28.2	28.2	28.2	77	21.9	1	2	315	0.00	30.326 
18:00	28.1	28.1	28.1	77	21.8	1	3	338	0.00	30.335 
18:05	27.9	27.9	27.9	76	21.3	1	3	338	0.00	30.335 
18:10	27.9	27.9	27.9	76	21.3	0	2	315	0.00	30.335 
18:15	27.8	27.8	27.8	76	21.2	0	3	315	0.00	30.344 
18:20	27.8	27.8	27.8	76	21.2	0	2	315	0.00	30.344 
18:25	27.8	27.8	27.8	76	21.2	0	2	270	0.00	30.344 
18:30	27.8	27.8	27.8	76	21.2	0	3	338	0.00	30.348 
18:35	27.6	27.6	27.6	75	20.7	1	3	248	0.00	30.348 
18:40	27.5	27.5	27.5	73	20.0	1	3	248	0.00	30.348 
18:45	27.3	27.3	27.3	72	19.5	2	4	248	0.00	30.357 
18:50	27.2	27.2	27.2	72	19.4	1	2	248	0.00	30.357 
18:55	27.0	27.0	27.0	71	18.9	1	3	248	0.00	30.357 
19:00	26.7	26.7	26.7	71	18.6	1	2	315	0.00	30.361 
19:05	26.6	26.6	26.6	70	18.2	1	4	338	0.00	30.361 
19:10	26.4	26.4	26.4	70	18.0	1	4	248	0.00	30.361 
19:15	26.3	26.3	26.3	69	17.5	1	4	292	0.00	30.363 
19:20	26.1	26.1	26.1	68	17.0	1	3	292	0.00	30.363 
19:25	26.0	26.0	26.0	68	16.9	0	1	292	0.00	30.363 
19:30	25.8	25.8	25.8	68	16.7	1	3	292	0.00	30.369 
19:35	25.8	25.8	25.8	68	16.7	1	2	292	0.00	30.369 
19:40	25.7	25.7	25.7	67	16.3	0	2	292	0.00	30.369 
19:45	25.6	25.6	25.6	67	16.2	1	2	292	0.00	30.372 
19:50	25.3	25.3	25.3	68	16.2	0	1	292	0.00	30.372 
19:55	25.1	25.1	25.1	68	16.1	0	1	292	0.00	30.372 
20:00	25.0	25.0	25.0	68	16.0	0	1	292	0.00	30.378 
20:05	24.8	24.8	24.8	68	15.8	0	2	292	0.00	30.378 
20:10	24.7	24.7	24.7	68	15.7	0	2	292	0.00	30.378 
20:15	24.5	24.5	24.5	68	15.5	0	1	292	0.00	30.382 
20:20	24.4	24.4	24.4	68	15.4	0	1	292	0.00	30.382 
20:25	24.2	24.2	24.2	68	15.2	0	1	292	0.00	30.382 
20:30	24.1	24.1	24.1	69	15.4	0	1	292	0.00	30.389 
20:35	24.1	24.1	24.1	69	15.4	0	1	292	0.00	30.389 
20:40	23.9	23.9	23.9	69	15.2	0	1	292	0.00	30.389 
20:45	23.8	23.8	23.8	71	15.8	0	0	---	0.00	30.396 
20:50	23.6	23.6	23.6	72	15.9	0	1	292	0.00	30.396 
20:55	23.6	23.6	23.6	72	15.9	0	1	292	0.00	30.396 
21:00	23.5	23.5	23.5	73	16.1	0	1	292	0.00	30.401 
21:05	23.3	23.3	23.3	73	15.9	0	1	292	0.00	30.401 
21:10	23.3	23.3	23.3	73	15.9	0	1	292	0.00	30.401 
21:15	23.3	23.3	23.3	73	15.9	0	1	292	0.00	30.402 
21:20	23.2	23.2	23.2	73	15.9	0	1	292	0.00	30.402 
21:25	23.2	23.2	23.2	73	15.9	0	2	292	0.00	30.402 
21:30	23.2	23.2	23.2	72	15.5	0	1	292	0.00	30.405 
21:35	23.0	23.0	23.0	73	15.7	0	1	292	0.00	30.405 
21:40	23.0	23.0	23.0	72	15.3	0	1	292	0.00	30.405 
21:45	22.9	22.9	22.9	72	15.2	0	1	292	0.00	30.407 
21:50	22.9	22.9	22.9	72	15.2	0	2	292	0.00	30.407 
21:55	22.7	22.7	22.7	72	15.1	0	1	292	0.00	30.407 
22:00	22.5	22.5	22.5	72	14.9	0	1	292	0.00	30.403 
22:05	22.5	22.5	22.5	72	14.9	0	1	292	0.00	30.403 
22:10	22.4	22.4	22.4	72	14.8	0	1	292	0.00	30.403 
22:15	22.2	22.2	22.2	72	14.6	0	2	292	0.00	30.406 
22:20	22.2	22.2	22.2	72	14.6	0	3	270	0.00	30.406 
22:25	22.2	22.2	22.2	71	14.3	0	2	270	0.00	30.406 
22:30	22.2	22.2	22.2	70	13.9	0	2	270	0.00	30.406 
22:35	22.1	22.1	22.1	70	13.8	0	2	270	0.00	30.406 
22:40	22.1	22.1	22.1	70	13.8	0	2	292	0.00	30.406 
22:45	21.9	21.9	21.9	69	13.3	0	1	292	0.00	30.409 
22:50	21.8	21.8	21.8	69	13.2	0	1	292	0.00	30.409 
22:55	21.8	21.8	21.8	69	13.2	0	1	292	0.00	30.409 
23:00	21.6	21.6	21.6	69	13.0	0	1	292	0.00	30.413 
23:05	21.4	21.4	21.4	69	12.8	0	1	292	0.00	30.413 
23:10	21.4	21.4	21.4	69	12.8	0	2	292	0.00	30.413 
23:15	21.3	21.3	21.3	69	12.7	0	2	292	0.00	30.413 
23:20	21.3	21.3	21.3	69	12.7	0	2	292	0.00	30.413 
23:25	21.1	21.1	21.1	69	12.5	0	2	292	0.00	30.413 
23:30	21.1	21.1	21.1	68	12.2	0	1	292	0.00	30.414 
23:35	21.0	21.0	21.0	69	12.5	0	1	292	0.00	30.414 
23:40	20.8	20.8	20.8	69	12.3	0	2	292	0.00	30.414 
23:45	20.6	20.6	20.6	69	12.1	0	1	292	0.00	30.416 
23:50	20.5	20.5	20.5	69	12.0	0	2	292	0.00	30.416 
23:55	20.5	20.5	20.5	69	12.0	0	1	292	0.00	30.416 

CoCoRaHS
IN-AL-39
A2 Web Hosting
Creative Commons License
GoDaddy
search engine by freefind advanced

loaded 2018-11-15 18:30:45 • last modified 2010-11-18 10:43:29
Privacy PolicyDisclaimer
• wx.awcolley.com is powered by PmWiki v.2002016 •
• all content (unless otherwise noted) © 2018 A W Colley